createdAt,value
2018-02-19T00:00:42.398Z,13.02
2018-02-19T00:03:10.728Z,12.90
2018-02-19T00:05:39.088Z,14.25
2018-02-19T00:08:07.353Z,13.87
2018-02-19T00:10:35.668Z,12.80
2018-02-19T00:13:04.006Z,14.90
2018-02-19T00:15:32.294Z,12.32
2018-02-19T00:18:00.592Z,12.80
2018-02-19T00:20:28.930Z,12.40
2018-02-19T00:22:57.204Z,13.73
2018-02-19T00:25:25.525Z,12.83
2018-02-19T00:27:53.781Z,13.90
2018-02-19T00:30:22.072Z,12.73
2018-02-19T00:32:50.348Z,13.30
2018-02-19T00:35:18.648Z,13.73
2018-02-19T00:37:46.935Z,12.67
2018-02-19T00:40:15.228Z,12.95
2018-02-19T00:42:43.517Z,12.50
2018-02-19T00:45:12.098Z,11.48
2018-02-19T00:47:40.383Z,12.60
2018-02-19T00:50:08.692Z,11.90
2018-02-19T00:52:37.073Z,12.53
2018-02-19T00:55:05.420Z,12.67
2018-02-19T00:57:33.744Z,13.00
2018-02-19T01:00:02.019Z,13.10
2018-02-19T01:02:30.337Z,13.13
2018-02-19T01:04:58.633Z,13.60
2018-02-19T01:07:26.904Z,12.87
2018-02-19T01:09:55.178Z,13.40
2018-02-19T01:12:23.690Z,12.83
2018-02-19T01:14:52.006Z,12.20
2018-02-19T01:17:20.392Z,13.63
2018-02-19T01:19:48.987Z,13.00
2018-02-19T01:22:17.270Z,12.37
2018-02-19T01:24:45.564Z,12.10
2018-02-19T01:27:14.327Z,13.10
2018-02-19T01:29:42.626Z,12.23
2018-02-19T01:32:10.903Z,13.57
2018-02-19T01:34:39.244Z,12.90
2018-02-19T01:37:07.535Z,12.50
2018-02-19T01:39:35.854Z,12.40
2018-02-19T01:42:04.517Z,12.10
2018-02-19T01:44:32.850Z,11.90
2018-02-19T01:47:01.151Z,12.03
2018-02-19T01:49:29.456Z,13.23
2018-02-19T01:51:57.771Z,12.57
2018-02-19T01:54:26.392Z,13.47
2018-02-19T01:56:54.686Z,12.50
2018-02-19T01:59:23.048Z,12.47
2018-02-19T02:01:51.541Z,13.37
2018-02-19T02:04:19.816Z,13.52
2018-02-19T02:06:48.120Z,12.30
2018-02-19T02:09:16.374Z,13.70
2018-02-19T02:11:44.675Z,13.93
2018-02-19T02:14:12.984Z,13.77
2018-02-19T02:16:41.289Z,13.80
2018-02-19T02:19:09.552Z,13.52
2018-02-19T02:21:37.862Z,14.00
2018-02-19T02:24:06.124Z,12.93
2018-02-19T02:26:34.432Z,13.63
2018-02-19T02:29:02.706Z,13.10
2018-02-19T02:31:31.031Z,12.53
2018-02-19T02:33:59.287Z,13.40
2018-02-19T02:36:27.632Z,12.67
2018-02-19T02:38:55.963Z,12.50
2018-02-19T02:41:24.245Z,13.73
2018-02-19T02:43:52.538Z,13.87
2018-02-19T02:46:20.815Z,14.00
2018-02-19T02:48:49.120Z,13.80
2018-02-19T02:51:17.463Z,14.63
2018-02-19T02:53:45.828Z,15.73
2018-02-19T02:56:14.147Z,14.20
2018-02-19T02:58:42.399Z,14.70
2018-02-19T03:01:10.676Z,13.23
2018-02-19T03:03:39.004Z,12.23
2018-02-19T03:06:07.288Z,13.20
2018-02-19T03:08:35.598Z,13.67
2018-02-19T03:11:04.624Z,13.55
2018-02-19T03:13:32.990Z,13.27
2018-02-19T03:16:01.281Z,12.90
2018-02-19T03:18:29.569Z,13.40
2018-02-19T03:20:58.186Z,12.40
2018-02-19T03:23:26.497Z,13.13
2018-02-19T03:25:54.775Z,12.23
2018-02-19T03:28:23.054Z,12.37
2018-02-19T03:30:51.375Z,12.17
2018-02-19T03:33:19.655Z,12.13
2018-02-19T03:35:48.047Z,10.83
2018-02-19T03:38:16.326Z,11.32
2018-02-19T03:40:44.660Z,11.20
2018-02-19T03:43:12.984Z,11.88
2018-02-19T03:45:41.334Z,11.30
2018-02-19T03:48:09.637Z,10.60
2018-02-19T03:50:37.938Z,10.77
2018-02-19T03:53:06.327Z,10.27
2018-02-19T03:55:34.648Z,11.30
2018-02-19T03:58:03.324Z,10.55
2018-02-19T04:00:31.650Z,10.70
2018-02-19T04:02:59.932Z,12.23
2018-02-19T04:05:28.212Z,11.50
2018-02-19T04:07:56.579Z,10.60
2018-02-19T04:10:24.867Z,9.70
2018-02-19T04:12:53.187Z,10.90
2018-02-19T04:15:21.427Z,9.25
2018-02-19T04:17:49.771Z,10.25
2018-02-19T04:20:18.027Z,10.30
2018-02-19T04:22:46.344Z,9.60
2018-02-19T04:25:14.621Z,9.77
2018-02-19T04:27:42.968Z,11.10
2018-02-19T04:30:11.273Z,11.80
2018-02-19T04:32:39.595Z,9.93
2018-02-19T04:35:07.860Z,10.73
2018-02-19T04:37:36.184Z,10.80
2018-02-19T04:40:05.207Z,11.07
2018-02-19T04:42:33.507Z,9.90
2018-02-19T04:48:05.365Z,10.60
2018-02-19T04:50:34.396Z,10.50
2018-02-19T04:53:02.737Z,10.63
2018-02-19T04:55:31.009Z,12.85
2018-02-19T04:58:00.055Z,11.00
2018-02-19T05:00:28.369Z,10.60
2018-02-19T05:02:56.678Z,10.80
2018-02-19T05:05:24.976Z,10.63
2018-02-19T05:07:53.262Z,10.00
2018-02-19T05:10:21.631Z,10.60
2018-02-19T05:12:50.140Z,10.03
2018-02-19T05:15:18.463Z,11.30
2018-02-19T05:17:46.772Z,11.40
2018-02-19T05:20:15.118Z,9.80
2018-02-19T05:22:43.391Z,9.40
2018-02-19T05:25:12.491Z,10.75
2018-02-19T05:27:40.764Z,9.13
2018-02-19T05:30:09.217Z,8.32
2018-02-19T05:32:37.493Z,8.60
2018-02-19T05:35:05.817Z,7.67
2018-02-19T05:37:34.184Z,8.40
2018-02-19T05:40:02.448Z,8.97
2018-02-19T05:42:30.762Z,9.00
2018-02-19T05:44:59.062Z,9.47
2018-02-19T05:47:27.412Z,8.50
2018-02-19T05:49:55.718Z,9.57
2018-02-19T05:52:24.032Z,9.73
2018-02-19T05:54:52.302Z,8.40
2018-02-19T05:57:20.651Z,9.70
2018-02-19T05:59:48.899Z,9.53
2018-02-19T06:02:17.222Z,10.07
2018-02-19T06:04:45.508Z,9.13
2018-02-19T06:07:13.834Z,9.48
2018-02-19T06:09:42.102Z,9.10
2018-02-19T06:12:10.381Z,9.68
2018-02-19T06:14:38.684Z,9.43
2018-02-19T06:17:06.988Z,9.43
2018-02-19T06:19:35.273Z,9.27
2018-02-19T06:22:03.576Z,9.07
2018-02-19T06:24:31.913Z,8.95
2018-02-19T06:27:00.287Z,9.30
2018-02-19T06:29:28.569Z,8.80
2018-02-19T06:31:56.940Z,8.33
2018-02-19T06:34:25.216Z,9.13
2018-02-19T06:36:53.499Z,8.93
2018-02-19T06:39:21.828Z,9.80
2018-02-19T06:41:50.119Z,9.83
2018-02-19T06:44:18.408Z,9.00
2018-02-19T06:46:46.687Z,10.00
2018-02-19T06:49:14.987Z,8.90
2018-02-19T06:51:44.181Z,8.40
2018-02-19T06:54:12.537Z,9.57
2018-02-19T06:56:40.804Z,9.30
2018-02-19T06:59:09.077Z,9.77
2018-02-19T07:01:37.382Z,10.00
2018-02-19T07:04:05.683Z,8.53
2018-02-19T07:06:33.982Z,8.30
2018-02-19T07:09:02.545Z,8.70
2018-02-19T07:11:30.905Z,9.90
2018-02-19T07:13:59.206Z,8.10
2018-02-19T07:16:27.510Z,7.50
2018-02-19T07:18:55.863Z,8.67
2018-02-19T07:21:24.236Z,8.63
2018-02-19T07:23:52.558Z,9.27
2018-02-19T07:26:20.867Z,7.20
2018-02-19T07:28:49.160Z,9.13
2018-02-19T07:31:17.510Z,10.07
2018-02-19T07:33:45.784Z,10.13
2018-02-19T07:36:14.145Z,9.90
2018-02-19T07:38:42.449Z,9.90
2018-02-19T07:41:11.033Z,8.73
2018-02-19T07:43:39.363Z,9.80
2018-02-19T07:46:07.734Z,9.20
2018-02-19T07:48:36.480Z,8.67
2018-02-19T07:51:05.402Z,9.37
2018-02-19T07:53:33.685Z,9.20
2018-02-19T07:56:02.849Z,8.73
2018-02-19T07:58:31.156Z,8.83
2018-02-19T08:01:00.292Z,9.10
2018-02-19T08:03:28.646Z,9.07
2018-02-19T08:05:57.144Z,8.70
2018-02-19T08:08:25.703Z,9.17
2018-02-19T08:10:54.000Z,8.07
2018-02-19T08:13:22.282Z,9.55
2018-02-19T08:15:50.649Z,10.00
2018-02-19T08:18:19.094Z,9.83
2018-02-19T08:20:49.088Z,10.60
2018-02-19T08:23:17.469Z,10.40
2018-02-19T08:25:46.420Z,12.43
2018-02-19T08:28:14.761Z,11.60
2018-02-19T08:30:43.284Z,10.40
2018-02-19T08:33:11.629Z,11.03
2018-02-19T08:35:39.943Z,11.20
2018-02-19T08:38:08.285Z,11.37
2018-02-19T08:40:36.621Z,11.43
2018-02-19T08:43:04.906Z,11.33
2018-02-19T08:45:33.668Z,10.93
2018-02-19T08:48:02.994Z,11.90
2018-02-19T08:50:31.288Z,11.50
2018-02-19T08:52:59.774Z,10.80
2018-02-19T08:55:28.042Z,10.80
2018-02-19T08:57:56.571Z,10.75
2018-02-19T09:00:24.894Z,9.63
2018-02-19T09:02:53.193Z,10.10
2018-02-19T09:05:21.604Z,9.90
2018-02-19T09:07:49.924Z,8.73
2018-02-19T09:10:18.208Z,10.00
2018-02-19T09:12:46.520Z,11.60
2018-02-19T09:15:14.813Z,8.23
2018-02-19T09:17:43.574Z,8.37
2018-02-19T09:20:12.406Z,7.43
2018-02-19T09:22:40.799Z,7.70
2018-02-19T09:25:09.167Z,9.60
2018-02-19T09:27:38.397Z,7.63
2018-02-19T09:30:07.211Z,7.80
2018-02-19T09:32:35.662Z,9.23
2018-02-19T09:35:06.200Z,7.50
2018-02-19T09:37:36.167Z,8.07
2018-02-19T09:40:05.250Z,8.40
2018-02-19T09:42:35.211Z,9.10
2018-02-19T09:45:03.518Z,8.90
2018-02-19T09:47:31.824Z,9.10
2018-02-19T09:50:00.140Z,7.93
2018-02-19T09:52:28.442Z,8.40
2018-02-19T09:54:56.745Z,8.70
2018-02-19T09:57:25.079Z,9.57
2018-02-19T09:59:53.382Z,12.50
2018-02-19T10:02:21.684Z,11.77
2018-02-19T10:04:50.017Z,9.15
2018-02-19T10:07:18.657Z,8.65
2018-02-19T10:09:47.027Z,7.83
2018-02-19T10:12:15.356Z,7.90
2018-02-19T10:14:43.655Z,8.27
2018-02-19T10:17:12.004Z,7.97
2018-02-19T10:19:40.363Z,8.67
2018-02-19T10:22:08.674Z,8.30
2018-02-19T10:24:36.953Z,7.43
2018-02-19T10:27:05.636Z,7.30
2018-02-19T10:29:33.961Z,7.93
2018-02-19T10:32:02.298Z,9.40
2018-02-19T10:34:31.361Z,7.40
2018-02-19T10:37:00.116Z,8.70
2018-02-19T10:39:28.456Z,8.60
2018-02-19T10:41:56.735Z,7.70
2018-02-19T10:44:25.071Z,10.13
2018-02-19T10:46:53.384Z,9.63
2018-02-19T10:49:21.704Z,7.97
2018-02-19T10:51:49.998Z,9.13
2018-02-19T10:54:18.325Z,9.23
2018-02-19T10:56:46.647Z,8.07
2018-02-19T10:59:14.941Z,8.90
2018-02-19T11:01:43.275Z,8.80
2018-02-19T11:04:19.359Z,9.07
2018-02-19T11:06:48.638Z,9.00
2018-02-19T11:09:16.995Z,9.25
2018-02-19T11:11:45.348Z,8.50
2018-02-19T11:14:13.604Z,8.80
2018-02-19T11:16:41.919Z,8.97
2018-02-19T11:19:10.267Z,8.80
2018-02-19T11:21:38.616Z,8.77
2018-02-19T11:24:06.917Z,9.50
2018-02-19T11:26:35.256Z,8.40
2018-02-19T11:29:03.589Z,9.30
2018-02-19T11:31:31.978Z,10.33
2018-02-19T11:34:00.296Z,8.83
2018-02-19T11:36:28.588Z,8.57
2018-02-19T11:38:56.982Z,9.17
2018-02-19T11:41:25.402Z,9.30
2018-02-19T11:43:53.671Z,8.67
2018-02-19T11:46:21.977Z,9.32
2018-02-19T11:48:50.288Z,8.63
2018-02-19T11:51:18.622Z,8.50
2018-02-19T11:53:47.151Z,8.83
2018-02-19T11:56:15.501Z,10.00
2018-02-19T11:58:43.832Z,9.83
2018-02-19T12:01:12.108Z,9.80
2018-02-19T12:03:40.494Z,9.70
2018-02-19T12:06:09.080Z,9.57
2018-02-19T12:08:37.345Z,9.30
2018-02-19T12:11:05.620Z,9.30
2018-02-19T12:13:33.976Z,8.40
2018-02-19T12:16:02.297Z,12.67
2018-02-19T12:18:30.556Z,9.53
2018-02-19T12:21:00.342Z,8.63
2018-02-19T12:23:28.702Z,9.40
2018-02-19T12:25:57.093Z,9.13
2018-02-19T12:28:25.474Z,9.63
2018-02-19T12:30:53.783Z,8.93
2018-02-19T12:33:22.087Z,8.77
2018-02-19T12:35:50.341Z,9.17
2018-02-19T12:38:18.623Z,9.10
2018-02-19T12:40:46.947Z,9.67
2018-02-19T12:43:15.304Z,9.90
2018-02-19T12:45:43.669Z,8.80
2018-02-19T12:48:11.997Z,9.70
2018-02-19T12:50:40.303Z,9.23
2018-02-19T12:53:08.616Z,8.73
2018-02-19T12:55:36.945Z,9.50
2018-02-19T12:58:05.263Z,8.57
2018-02-19T13:00:33.536Z,8.50
2018-02-19T13:03:01.845Z,9.83
2018-02-19T13:05:30.154Z,9.67
2018-02-19T13:07:58.568Z,9.10
2018-02-19T13:10:26.899Z,10.23
2018-02-19T13:12:55.202Z,8.77
2018-02-19T13:15:23.581Z,8.93
2018-02-19T13:17:51.857Z,9.70
2018-02-19T13:20:20.274Z,9.77
2018-02-19T13:22:48.579Z,10.27
2018-02-19T13:25:16.898Z,9.18
2018-02-19T13:27:45.287Z,9.10
2018-02-19T13:30:13.592Z,9.40
2018-02-19T13:32:41.898Z,9.65
2018-02-19T13:35:10.200Z,10.02
2018-02-19T13:37:39.418Z,9.57
2018-02-19T13:40:07.696Z,10.07
2018-02-19T13:42:36.098Z,9.17
2018-02-19T13:45:04.397Z,8.40
2018-02-19T13:47:33.146Z,8.53
2018-02-19T13:50:01.677Z,8.50
2018-02-19T13:52:29.950Z,8.83
2018-02-19T13:54:58.279Z,9.23
2018-02-19T13:57:26.560Z,9.80
2018-02-19T13:59:54.906Z,9.00
2018-02-19T14:02:23.251Z,9.13
2018-02-19T14:04:51.550Z,11.30
2018-02-19T14:07:19.886Z,9.50
2018-02-19T14:09:48.181Z,10.23
2018-02-19T14:12:16.490Z,9.77
2018-02-19T14:14:44.801Z,11.67
2018-02-19T14:17:13.123Z,10.60
2018-02-19T14:19:41.451Z,11.40
2018-02-19T14:22:09.759Z,10.50
2018-02-19T14:24:38.044Z,9.40
2018-02-19T14:27:06.334Z,8.73
2018-02-19T14:29:35.495Z,11.27
2018-02-19T14:32:04.751Z,9.33
2018-02-19T14:34:33.073Z,10.67
2018-02-19T14:37:01.534Z,8.63
2018-02-19T14:39:29.909Z,8.90
2018-02-19T14:41:58.346Z,11.67
2018-02-19T14:44:26.766Z,8.10
2018-02-19T14:46:55.763Z,9.70
2018-02-19T14:49:24.105Z,12.10
2018-02-19T14:51:52.531Z,10.47
2018-02-19T14:54:20.910Z,9.30
2018-02-19T14:56:50.095Z,10.40
2018-02-19T14:59:18.404Z,10.15
2018-02-19T15:01:47.050Z,9.77
2018-02-19T15:04:15.393Z,9.13
2018-02-19T15:06:43.767Z,8.50
2018-02-19T15:09:12.899Z,10.93
2018-02-19T15:11:41.395Z,9.80
2018-02-19T15:14:09.741Z,10.02
2018-02-19T15:16:38.136Z,11.00
2018-02-19T15:19:06.453Z,9.90
2018-02-19T15:21:34.840Z,10.37
2018-02-19T15:24:03.449Z,9.50
2018-02-19T15:26:32.025Z,10.70
2018-02-19T15:29:00.389Z,11.60
2018-02-19T15:31:28.739Z,11.97
2018-02-19T15:33:57.064Z,14.93
2018-02-19T15:36:25.522Z,10.77
2018-02-19T15:38:53.875Z,11.00
2018-02-19T15:41:22.200Z,11.07
2018-02-19T15:43:50.518Z,10.32
2018-02-19T15:46:18.850Z,11.77
2018-02-19T15:48:47.612Z,11.23
2018-02-19T15:51:15.870Z,11.90
2018-02-19T15:53:44.840Z,12.90
2018-02-19T15:56:13.193Z,12.70
2018-02-19T15:58:41.464Z,12.33
2018-02-19T16:01:09.786Z,10.80
2018-02-19T16:03:38.153Z,11.67
2018-02-19T16:06:06.436Z,11.40
2018-02-19T16:08:34.777Z,13.03
2018-02-19T16:11:03.096Z,12.57
2018-02-19T16:13:31.433Z,12.63
2018-02-19T16:15:59.917Z,12.93
2018-02-19T16:18:28.412Z,12.82
2018-02-19T16:20:56.736Z,13.40
2018-02-19T16:23:25.122Z,12.20
2018-02-19T16:25:54.397Z,12.82
2018-02-19T16:28:22.729Z,13.17
2018-02-19T16:30:51.064Z,13.63
2018-02-19T16:33:19.995Z,12.80
2018-02-19T16:35:48.403Z,12.60
2018-02-19T16:38:16.686Z,12.70
2018-02-19T16:40:45.009Z,14.50
2018-02-19T16:43:13.379Z,13.75
2018-02-19T16:45:41.733Z,12.27
2018-02-19T16:48:10.016Z,12.88
2018-02-19T16:50:38.384Z,11.63
2018-02-19T16:53:07.674Z,13.07
2018-02-19T16:55:36.221Z,14.07
2018-02-19T16:58:05.246Z,13.93
2018-02-19T17:00:33.527Z,11.80
2018-02-19T17:03:01.848Z,12.40
2018-02-19T17:05:30.161Z,12.33
2018-02-19T17:07:58.598Z,12.00
2018-02-19T17:10:26.970Z,12.03
2018-02-19T17:12:55.328Z,12.50
2018-02-19T17:15:23.642Z,12.53
2018-02-19T17:17:51.920Z,12.57
2018-02-19T17:20:20.212Z,12.50
2018-02-19T17:22:48.534Z,12.27
2018-02-19T17:25:16.841Z,13.63
2018-02-19T17:27:45.111Z,12.57
2018-02-19T17:30:13.454Z,12.43
2018-02-19T17:32:41.741Z,12.90
2018-02-19T17:35:10.445Z,14.45
2018-02-19T17:37:38.789Z,13.30
2018-02-19T17:40:07.073Z,12.80
2018-02-19T17:42:35.388Z,11.67
2018-02-19T17:45:03.667Z,12.13
2018-02-19T17:47:32.028Z,13.37
2018-02-19T17:50:00.293Z,11.43
2018-02-19T17:52:28.588Z,12.10
2018-02-19T17:54:56.923Z,11.20
2018-02-19T17:57:25.217Z,11.27
2018-02-19T17:59:53.481Z,14.05
2018-02-19T18:02:21.908Z,12.07
2018-02-19T18:04:50.202Z,13.00
2018-02-19T18:07:18.545Z,12.25
2018-02-19T18:09:46.841Z,11.53
2018-02-19T18:12:15.127Z,12.00
2018-02-19T18:14:43.427Z,13.03
2018-02-19T18:17:11.763Z,12.77
2018-02-19T18:19:40.221Z,13.50
2018-02-19T18:22:08.516Z,13.50
2018-02-19T18:24:36.791Z,13.00
2018-02-19T18:27:05.123Z,12.37
2018-02-19T18:29:33.398Z,12.87
2018-02-19T18:32:01.697Z,12.40
2018-02-19T18:34:30.008Z,12.10
2018-02-19T18:36:58.337Z,10.70
2018-02-19T18:39:26.658Z,11.70
2018-02-19T18:41:54.961Z,11.17
2018-02-19T18:44:23.260Z,11.67
2018-02-19T18:46:51.583Z,10.80
2018-02-19T18:49:19.869Z,10.90
2018-02-19T18:51:48.192Z,11.30
2018-02-19T18:54:16.473Z,12.13
2018-02-19T18:56:44.784Z,11.98
2018-02-19T18:59:13.245Z,10.80
2018-02-19T19:01:41.522Z,11.73
2018-02-19T19:04:10.681Z,11.18
2018-02-19T19:06:38.971Z,11.82
2018-02-19T19:09:19.974Z,11.77
2018-02-19T19:11:48.275Z,11.63
2018-02-19T19:14:16.605Z,11.60
2018-02-19T19:16:45.851Z,11.57
2018-02-19T19:19:14.185Z,11.23
2018-02-19T19:21:43.276Z,12.20
2018-02-19T19:24:11.577Z,13.35
2018-02-19T19:26:39.853Z,12.20
2018-02-19T19:29:08.156Z,11.80
2018-02-19T19:31:36.489Z,11.60
2018-02-19T19:34:05.674Z,11.83
2018-02-19T19:36:33.951Z,11.83
2018-02-19T19:39:02.381Z,12.50
2018-02-19T19:41:30.676Z,11.17
2018-02-19T19:43:58.953Z,11.33
2018-02-19T19:46:27.263Z,12.30
2018-02-19T19:48:55.653Z,12.30
2018-02-19T19:51:23.972Z,11.63
2018-02-19T19:53:52.296Z,11.37
2018-02-19T19:56:20.606Z,12.65
2018-02-19T19:58:48.884Z,12.90
2018-02-19T20:01:17.197Z,11.57
2018-02-19T20:03:45.486Z,11.80
2018-02-19T20:06:13.797Z,11.90
2018-02-19T20:08:42.099Z,12.97
2018-02-19T20:11:11.209Z,11.93
2018-02-19T20:13:39.510Z,11.07
2018-02-19T20:16:07.785Z,11.03
2018-02-19T20:18:36.086Z,11.20
2018-02-19T20:21:04.370Z,10.60
2018-02-19T20:23:32.676Z,11.35
2018-02-19T20:26:00.956Z,10.60
2018-02-19T20:28:29.246Z,11.50
2018-02-19T20:30:57.544Z,12.00
2018-02-19T20:33:25.862Z,10.60
2018-02-19T20:35:54.139Z,11.30
2018-02-19T20:38:22.505Z,11.47
2018-02-19T20:40:50.823Z,11.07
2018-02-19T20:43:19.989Z,11.10
2018-02-19T20:45:48.301Z,10.73
2018-02-19T20:48:16.811Z,11.87
2018-02-19T20:50:45.135Z,12.10
2018-02-19T20:53:13.451Z,11.70
2018-02-19T20:55:41.771Z,11.17
2018-02-19T20:58:10.060Z,11.05
2018-02-19T21:00:38.369Z,12.40
2018-02-19T21:03:06.680Z,12.47
2018-02-19T21:05:35.025Z,11.37
2018-02-19T21:08:03.421Z,12.90
2018-02-19T21:10:31.726Z,12.23
2018-02-19T21:13:00.069Z,12.53
2018-02-19T21:15:28.392Z,12.50
2018-02-19T21:17:56.651Z,12.23
2018-02-19T21:20:24.948Z,11.80
2018-02-19T21:22:53.282Z,12.68
2018-02-19T21:25:21.560Z,13.32
2018-02-19T21:27:49.887Z,12.60
2018-02-19T21:30:18.155Z,13.17
2018-02-19T21:32:46.457Z,13.53
2018-02-19T21:35:14.724Z,13.73
2018-02-19T21:37:43.059Z,14.00
2018-02-19T21:40:11.337Z,13.77
2018-02-19T21:42:39.651Z,13.40
2018-02-19T21:45:07.948Z,13.27
2018-02-19T21:47:36.264Z,12.87
2018-02-19T21:50:05.138Z,13.20
2018-02-19T21:52:33.495Z,13.10
2018-02-19T21:55:01.823Z,12.23
2018-02-19T21:57:30.099Z,12.50
2018-02-19T21:59:58.471Z,12.27
2018-02-19T22:02:26.958Z,12.30
2018-02-19T22:04:55.263Z,11.33
2018-02-19T22:07:23.602Z,12.17
2018-02-19T22:09:51.966Z,11.40
2018-02-19T22:12:20.238Z,13.57
2018-02-19T22:14:48.612Z,14.10
2018-02-19T22:17:16.884Z,14.20
2018-02-19T22:19:45.236Z,13.80
2018-02-19T22:22:13.537Z,12.75
2018-02-19T22:24:41.871Z,11.75
2018-02-19T22:27:10.175Z,12.90
2018-02-19T22:29:38.448Z,12.40
2018-02-19T22:32:06.750Z,13.33
2018-02-19T22:34:35.011Z,12.98
2018-02-19T22:37:03.321Z,13.17
2018-02-19T22:39:31.597Z,13.20
2018-02-19T22:41:59.918Z,12.37
2018-02-19T22:44:28.171Z,11.80
2018-02-19T22:46:56.477Z,13.20
2018-02-19T22:49:24.750Z,13.63
2018-02-19T22:51:53.112Z,13.32
2018-02-19T22:54:21.415Z,13.73
2018-02-19T22:56:49.681Z,13.30
2018-02-19T22:59:17.991Z,13.85
2018-02-19T23:01:46.286Z,13.93
2018-02-19T23:04:15.063Z,13.20
2018-02-19T23:06:43.367Z,14.07
2018-02-19T23:09:11.732Z,13.40
2018-02-19T23:11:40.018Z,13.97
2018-02-19T23:14:08.345Z,13.60
2018-02-19T23:16:36.599Z,14.03
2018-02-19T23:19:04.920Z,13.13
2018-02-19T23:21:33.209Z,13.57
2018-02-19T23:24:01.503Z,15.40
2018-02-19T23:26:29.800Z,12.23
2018-02-19T23:28:58.219Z,13.90
2018-02-19T23:31:27.057Z,12.80
2018-02-19T23:33:55.344Z,12.37
2018-02-19T23:36:23.659Z,11.80
2018-02-19T23:38:51.942Z,12.33
2018-02-19T23:41:20.265Z,12.82
2018-02-19T23:43:49.346Z,12.43
2018-02-19T23:46:17.673Z,13.17
2018-02-19T23:48:45.931Z,13.23
2018-02-19T23:51:14.429Z,12.70
2018-02-19T23:53:42.704Z,12.50
2018-02-19T23:56:11.000Z,12.53
2018-02-19T23:58:39.307Z,12.80
